sensor_id;sensor_type;location;lat;lon;timestamp;pressure;altitude;pressure_sealevel;temperature;humidity
22930;BME280;11630;42.660;23.292;2022-11-20T00:01:53;69684.20;;;19.46;87.16
22930;BME280;11630;42.660;23.292;2022-11-20T00:04:24;69686.95;;;19.46;87.46
22930;BME280;11630;42.660;23.292;2022-11-20T00:06:55;69678.42;;;19.44;87.76
22930;BME280;11630;42.660;23.292;2022-11-20T00:09:25;69704.53;;;19.57;87.02
22930;BME280;11630;42.660;23.292;2022-11-20T00:11:56;69671.55;;;19.42;87.16
22930;BME280;11630;42.660;23.292;2022-11-20T00:14:27;69680.38;;;19.40;88.03
22930;BME280;11630;42.660;23.292;2022-11-20T00:16:58;69701.52;;;19.53;86.96
22930;BME280;11630;42.660;23.292;2022-11-20T00:19:29;69704.76;;;19.63;92.57
22930;BME280;11630;42.660;23.292;2022-11-20T00:22:00;69690.75;;;19.54;91.30
22930;BME280;11630;42.660;23.292;2022-11-20T00:24:30;69680.38;;;19.40;87.84
22930;BME280;11630;42.660;23.292;2022-11-20T00:27:01;69679.03;;;19.35;88.45
22930;BME280;11630;42.660;23.292;2022-11-20T00:29:32;69666.92;;;19.34;87.43
22930;BME280;11630;42.660;23.292;2022-11-20T00:32:04;69674.94;;;19.28;87.65
22930;BME280;11630;42.660;23.292;2022-11-20T00:34:38;69675.72;;;19.34;86.24
22930;BME280;11630;42.660;23.292;2022-11-20T00:37:09;69699.07;;;19.47;86.23
22930;BME280;11630;42.660;23.292;2022-11-20T00:39:39;69695.72;;;19.54;85.02
22930;BME280;11630;42.660;23.292;2022-11-20T00:42:10;69682.58;;;19.42;86.09
22930;BME280;11630;42.660;23.292;2022-11-20T00:44:42;69664.47;;;19.26;87.76
22930;BME280;11630;42.660;23.292;2022-11-20T00:47:13;69682.05;;;19.36;86.51
22930;BME280;11630;42.660;23.292;2022-11-20T00:49:43;69653.73;;;19.27;87.21
22930;BME280;11630;42.660;23.292;2022-11-20T00:52:14;69658.16;;;19.21;87.70
22930;BME280;11630;42.660;23.292;2022-11-20T00:54:43;69649.10;;;19.19;87.18
22930;BME280;11630;42.660;23.292;2022-11-20T00:57:14;69650.16;;;19.25;86.62
22930;BME280;11630;42.660;23.292;2022-11-20T00:59:45;69665.23;;;19.40;86.65
22930;BME280;11630;42.660;23.292;2022-11-20T01:02:16;69675.98;;;19.36;86.59
22930;BME280;11630;42.660;23.292;2022-11-20T01:04:46;69687.30;;;19.35;85.74
22930;BME280;11630;42.660;23.292;2022-11-20T01:07:19;69666.73;;;19.15;87.82
22930;BME280;11630;42.660;23.292;2022-11-20T01:09:52;69633.16;;;19.07;88.58
22930;BME280;11630;42.660;23.292;2022-11-20T01:12:22;69638.96;;;19.04;88.84
22930;BME280;11630;42.660;23.292;2022-11-20T01:14:53;69651.64;;;19.05;87.89
22930;BME280;11630;42.660;23.292;2022-11-20T01:17:24;69666.43;;;19.24;87.38
22930;BME280;11630;42.660;23.292;2022-11-20T01:19:54;69647.48;;;19.13;88.26
22930;BME280;11630;42.660;23.292;2022-11-20T01:22:24;69647.50;;;19.05;88.56
22930;BME280;11630;42.660;23.292;2022-11-20T01:24:59;69631.31;;;18.94;88.86
22930;BME280;11630;42.660;23.292;2022-11-20T01:27:30;69632.36;;;19.05;87.22
22930;BME280;11630;42.660;23.292;2022-11-20T01:30:01;69663.39;;;19.22;86.52
22930;BME280;11630;42.660;23.292;2022-11-20T01:32:31;69668.58;;;19.33;86.16
22930;BME280;11630;42.660;23.292;2022-11-20T01:35:04;69656.19;;;19.28;86.44
22930;BME280;11630;42.660;23.292;2022-11-20T01:37:35;69669.41;;;19.30;86.36
22930;BME280;11630;42.660;23.292;2022-11-20T01:40:07;69658.78;;;19.09;87.22
22930;BME280;11630;42.660;23.292;2022-11-20T01:42:38;69652.98;;;19.13;86.90
22930;BME280;11630;42.660;23.292;2022-11-20T01:46:03;69646.10;;;19.13;86.24
22930;BME280;11630;42.660;23.292;2022-11-20T01:48:37;69648.55;;;19.16;86.25
22930;BME280;11630;42.660;23.292;2022-11-20T01:51:12;69657.09;;;19.15;85.09
22930;BME280;11630;42.660;23.292;2022-11-20T01:53:42;69644.46;;;19.11;86.14
22930;BME280;11630;42.660;23.292;2022-11-20T01:56:14;69634.62;;;18.92;87.18
22930;BME280;11630;42.660;23.292;2022-11-20T01:58:51;69663.98;;;19.15;85.52
22930;BME280;11630;42.660;23.292;2022-11-20T02:01:20;69648.31;;;19.12;85.63
22930;BME280;11630;42.660;23.292;2022-11-20T02:03:51;69634.33;;;18.96;86.37
22930;BME280;11630;42.660;23.292;2022-11-20T02:06:35;69623.09;;;18.89;86.86
22930;BME280;11630;42.660;23.292;2022-11-20T02:09:07;69647.77;;;19.07;85.78
22930;BME280;11630;42.660;23.292;2022-11-20T02:11:37;69640.41;;;18.94;86.09
22930;BME280;11630;42.660;23.292;2022-11-20T02:14:08;69641.20;;;19.01;86.06
22930;BME280;11630;42.660;23.292;2022-11-20T02:16:43;69644.24;;;18.97;85.94
22930;BME280;11630;42.660;23.292;2022-11-20T02:19:26;69596.42;;;18.81;87.09
22930;BME280;11630;42.660;23.292;2022-11-20T02:22:14;69597.87;;;18.69;87.68
22930;BME280;11630;42.660;23.292;2022-11-20T02:24:44;69595.96;;;18.63;87.81
22930;BME280;11630;42.660;23.292;2022-11-20T02:27:18;69623.13;;;18.79;86.34
22930;BME280;11630;42.660;23.292;2022-11-20T02:29:53;69611.03;;;18.76;86.20
22930;BME280;11630;42.660;23.292;2022-11-20T02:32:32;69591.55;;;18.67;86.97
22930;BME280;11630;42.660;23.292;2022-11-20T02:35:56;69617.94;;;18.73;87.54
22930;BME280;11630;42.660;23.292;2022-11-20T02:37:42;69601.94;;;18.76;88.02
22930;BME280;11630;42.660;23.292;2022-11-20T02:40:13;69634.97;;;18.76;87.65
22930;BME280;11630;42.660;23.292;2022-11-20T02:42:44;69604.72;;;18.74;87.60
22930;BME280;11630;42.660;23.292;2022-11-20T02:45:13;69610.77;;;18.77;87.98
22930;BME280;11630;42.660;23.292;2022-11-20T02:47:46;69628.87;;;18.88;87.70
22930;BME280;11630;42.660;23.292;2022-11-20T02:50:16;69632.17;;;18.86;87.75
22930;BME280;11630;42.660;23.292;2022-11-20T02:52:46;69610.19;;;18.81;88.41
22930;BME280;11630;42.660;23.292;2022-11-20T02:55:18;69611.01;;;18.83;89.02
22930;BME280;11630;42.660;23.292;2022-11-20T02:57:48;69624.48;;;18.87;89.03
22930;BME280;11630;42.660;23.292;2022-11-20T03:00:19;69616.52;;;18.83;89.69
22930;BME280;11630;42.660;23.292;2022-11-20T03:02:49;69614.31;;;18.81;90.19
22930;BME280;11630;42.660;23.292;2022-11-20T03:05:19;69604.72;;;18.74;90.78
22930;BME280;11630;42.660;23.292;2022-11-20T03:07:50;69575.64;;;18.57;92.08
22930;BME280;11630;42.660;23.292;2022-11-20T03:10:21;69585.82;;;18.55;92.52
22930;BME280;11630;42.660;23.292;2022-11-20T03:12:56;69586.95;;;18.52;92.59
22930;BME280;11630;42.660;23.292;2022-11-20T03:15:26;69571.03;;;18.45;93.48
22930;BME280;11630;42.660;23.292;2022-11-20T03:17:57;69578.43;;;18.48;93.08
22930;BME280;11630;42.660;23.292;2022-11-20T03:20:28;69581.73;;;18.51;93.16
22930;BME280;11630;42.660;23.292;2022-11-20T03:22:58;69574.86;;;18.48;93.38
22930;BME280;11630;42.660;23.292;2022-11-20T03:25:29;69584.45;;;18.55;93.06
22930;BME280;11630;42.660;23.292;2022-11-20T03:28:00;69590.22;;;18.59;92.47
22930;BME280;11630;42.660;23.292;2022-11-20T03:30:31;69579.80;;;18.53;92.89
22930;BME280;11630;42.660;23.292;2022-11-20T03:33:02;69579.82;;;18.45;93.31
22930;BME280;11630;42.660;23.292;2022-11-20T03:35:33;69567.73;;;18.47;92.83
22930;BME280;11630;42.660;23.292;2022-11-20T03:38:06;69577.05;;;18.53;92.93
22930;BME280;11630;42.660;23.292;2022-11-20T03:40:37;69579.80;;;18.53;92.89
22930;BME280;11630;42.660;23.292;2022-11-20T03:43:09;69576.47;;;18.54;92.81
22930;BME280;11630;42.660;23.292;2022-11-20T03:45:40;69574.03;;;18.49;93.17
22930;BME280;11630;42.660;23.292;2022-11-20T03:48:11;69580.59;;;18.54;92.25
22930;BME280;11630;42.660;23.292;2022-11-20T03:50:42;69569.61;;;18.52;92.26
22930;BME280;11630;42.660;23.292;2022-11-20T03:53:16;69594.59;;;18.63;91.71
22930;BME280;11630;42.660;23.292;2022-11-20T03:55:50;69570.45;;;18.52;92.05
22930;BME280;11630;42.660;23.292;2022-11-20T03:58:17;69576.73;;;18.58;91.63
22930;BME280;11630;42.660;23.292;2022-11-20T04:00:47;69595.95;;;18.68;91.27
22930;BME280;11630;42.660;23.292;2022-11-20T04:03:18;69586.88;;;18.66;91.19
22930;BME280;11630;42.660;23.292;2022-11-20T04:05:52;69600.89;;;18.68;91.02
22930;BME280;11630;42.660;23.292;2022-11-20T04:08:24;69598.70;;;18.68;90.94
22930;BME280;11630;42.660;23.292;2022-11-20T04:10:55;69600.66;;;18.59;91.56
22930;BME280;11630;42.660;23.292;2022-11-20T04:13:26;69584.97;;;18.61;90.97
22930;BME280;11630;42.660;23.292;2022-11-20T04:15:58;69582.83;;;18.52;91.47
22930;BME280;11630;42.660;23.292;2022-11-20T04:18:28;69567.72;;;18.44;91.61
22930;BME280;11630;42.660;23.292;2022-11-20T04:20:59;69576.19;;;18.55;90.46
22930;BME280;11630;42.660;23.292;2022-11-20T04:23:29;69572.08;;;18.53;90.23
22930;BME280;11630;42.660;23.292;2022-11-20T04:26:07;69580.91;;;18.49;90.83
22930;BME280;11630;42.660;23.292;2022-11-20T04:28:38;69570.75;;;18.46;91.65
22930;BME280;11630;42.660;23.292;2022-11-20T04:31:12;69572.16;;;18.38;92.40
22930;BME280;11630;42.660;23.292;2022-11-20T04:33:42;69547.76;;;18.25;93.49
22930;BME280;11630;42.660;23.292;2022-11-20T04:36:18;69548.85;;;18.23;94.35
22930;BME280;11630;42.660;23.292;2022-11-20T04:38:53;69544.19;;;18.23;94.51
22930;BME280;11630;42.660;23.292;2022-11-20T04:41:25;69548.31;;;18.23;94.64
22930;BME280;11630;42.660;23.292;2022-11-20T04:43:59;69541.99;;;18.21;94.72
22930;BME280;11630;42.660;23.292;2022-11-20T04:46:31;69542.53;;;18.24;94.73
22930;BME280;11630;42.660;23.292;2022-11-20T04:49:02;69538.14;;;18.25;94.22
22930;BME280;11630;42.660;23.292;2022-11-20T04:51:33;69548.03;;;18.24;94.32
22930;BME280;11630;42.660;23.292;2022-11-20T04:54:04;69522.50;;;18.09;95.33
22930;BME280;11630;42.660;23.292;2022-11-20T04:56:34;69532.41;;;18.08;95.53
22930;BME280;11630;42.660;23.292;2022-11-20T04:59:05;69535.98;;;18.08;95.74
22930;BME280;11630;42.660;23.292;2022-11-20T05:01:36;69531.03;;;18.08;95.51
22930;BME280;11630;42.660;23.292;2022-11-20T05:04:07;69535.71;;;18.09;95.11
22930;BME280;11630;42.660;23.292;2022-11-20T05:06:37;69546.41;;;18.12;94.49
22930;BME280;11630;42.660;23.292;2022-11-20T05:09:08;69537.88;;;18.16;94.44
22930;BME280;11630;42.660;23.292;2022-11-20T05:11:39;69539.80;;;18.14;95.06
22930;BME280;11630;42.660;23.292;2022-11-20T05:14:10;69527.73;;;18.08;95.48
22930;BME280;11630;42.660;23.292;2022-11-20T05:16:40;69523.91;;;18.04;95.92
22930;BME280;11630;42.660;23.292;2022-11-20T05:19:11;69523.08;;;18.05;95.31
22930;BME280;11630;42.660;23.292;2022-11-20T05:21:42;69535.71;;;18.09;94.04
22930;BME280;11630;42.660;23.292;2022-11-20T05:24:13;69530.77;;;18.07;94.99
22930;BME280;11630;42.660;23.292;2022-11-20T05:26:44;69520.88;;;18.03;95.42
22930;BME280;11630;42.660;23.292;2022-11-20T05:29:14;69539.50;;;18.20;93.60
22930;BME280;11630;42.660;23.292;2022-11-20T05:31:45;69537.33;;;18.13;93.78
22930;BME280;11630;42.660;23.292;2022-11-20T05:34:16;69534.30;;;18.16;93.63
22930;BME280;11630;42.660;23.292;2022-11-20T05:36:47;69537.89;;;18.13;94.65
22930;BME280;11630;42.660;23.292;2022-11-20T05:39:20;69534.05;;;18.12;94.55
22930;BME280;11630;42.660;23.292;2022-11-20T05:41:59;69524.70;;;18.11;94.58
22930;BME280;11630;42.660;23.292;2022-11-20T05:47:27;69519.27;;;17.96;96.04
22930;BME280;11630;42.660;23.292;2022-11-20T05:50:05;69526.64;;;18.07;95.09
22930;BME280;11630;42.660;23.292;2022-11-20T05:52:36;69528.57;;;18.05;95.04
22930;BME280;11630;42.660;23.292;2022-11-20T05:55:10;69526.67;;;18.02;94.10
22930;BME280;11630;42.660;23.292;2022-11-20T05:57:40;69530.21;;;18.09;91.95
22930;BME280;11630;42.660;23.292;2022-11-20T06:00:12;69537.31;;;18.15;91.79
22930;BME280;11630;42.660;23.292;2022-11-20T06:02:42;69539.83;;;18.09;93.11
22930;BME280;11630;42.660;23.292;2022-11-20T06:05:13;69528.00;;;18.09;93.47
22930;BME280;11630;42.660;23.292;2022-11-20T06:07:43;69520.37;;;17.97;94.24
22930;BME280;11630;42.660;23.292;2022-11-20T06:10:14;69527.20;;;18.05;93.70
22930;BME280;11630;42.660;23.292;2022-11-20T06:12:45;69535.67;;;18.16;93.14
22930;BME280;11630;42.660;23.292;2022-11-20T06:15:16;69540.91;;;18.15;92.54
22930;BME280;11630;42.660;23.292;2022-11-20T06:17:47;69556.80;;;18.32;91.00
22930;BME280;11630;42.660;23.292;2022-11-20T06:20:18;69562.58;;;18.31;92.31
22930;BME280;11630;42.660;23.292;2022-11-20T06:22:49;69569.44;;;18.33;92.72
22930;BME280;11630;42.660;23.292;2022-11-20T06:25:20;69546.91;;;18.28;93.25
22930;BME280;11630;42.660;23.292;2022-11-20T06:27:51;69559.28;;;18.28;93.13
22930;BME280;11630;42.660;23.292;2022-11-20T06:30:22;69561.43;;;18.37;91.49
22930;BME280;11630;42.660;23.292;2022-11-20T06:32:53;69572.13;;;18.46;91.86
22930;BME280;11630;42.660;23.292;2022-11-20T06:35:24;69554.88;;;18.29;93.12
22930;BME280;11630;42.660;23.292;2022-11-20T06:37:55;69543.91;;;18.24;93.22
22930;BME280;11630;42.660;23.292;2022-11-20T06:40:26;69576.53;;;18.45;92.48
22930;BME280;11630;42.660;23.292;2022-11-20T06:42:56;69600.05;;;18.73;90.37
22930;BME280;11630;42.660;23.292;2022-11-20T06:45:28;69611.05;;;18.73;88.71
22930;BME280;11630;42.660;23.292;2022-11-20T06:47:58;69627.20;;;18.92;87.46
22930;BME280;11630;42.660;23.292;2022-11-20T06:50:29;69657.06;;;19.23;86.58
22930;BME280;11630;42.660;23.292;2022-11-20T06:53:00;69676.82;;;19.35;84.59
22930;BME280;11630;42.660;23.292;2022-11-20T06:55:34;69683.64;;;19.48;83.24
22930;BME280;11630;42.660;23.292;2022-11-20T06:58:05;69716.06;;;19.65;82.48
22930;BME280;11630;42.660;23.292;2022-11-20T07:00:35;69736.31;;;19.88;81.70
22930;BME280;11630;42.660;23.292;2022-11-20T07:03:06;69719.59;;;19.74;82.20
22930;BME280;11630;42.660;23.292;2022-11-20T07:05:37;69725.66;;;19.72;82.43
22930;BME280;11630;42.660;23.292;2022-11-20T07:08:14;69736.85;;;19.89;82.80
22930;BME280;11630;42.660;23.292;2022-11-20T07:10:45;69700.70;;;19.53;84.06
22930;BME280;11630;42.660;23.292;2022-11-20T07:22:13;69618.45;;;18.81;88.12
22930;BME280;11630;42.660;23.292;2022-11-20T07:24:44;69617.30;;;18.90;88.59
22930;BME280;11630;42.660;23.292;2022-11-20T07:27:15;69607.73;;;18.78;88.47
22930;BME280;11630;42.660;23.292;2022-11-20T07:29:46;69600.89;;;18.68;88.13
22930;BME280;11630;42.660;23.292;2022-11-20T07:32:17;69594.28;;;18.69;88.16
22930;BME280;11630;42.660;23.292;2022-11-20T07:34:48;69595.69;;;18.64;88.67
22930;BME280;11630;42.660;23.292;2022-11-20T07:37:19;69597.33;;;18.68;88.03
22930;BME280;11630;42.660;23.292;2022-11-20T07:39:53;69603.05;;;18.77;86.47
22930;BME280;11630;42.660;23.292;2022-11-20T07:42:24;69615.70;;;18.81;87.46
22930;BME280;11630;42.660;23.292;2022-11-20T07:44:55;69608.81;;;18.81;87.01
22930;BME280;11630;42.660;23.292;2022-11-20T07:47:26;69618.17;;;18.82;86.51
22930;BME280;11630;42.660;23.292;2022-11-20T07:49:56;69628.31;;;18.90;85.42
22930;BME280;11630;42.660;23.292;2022-11-20T07:52:26;69620.91;;;18.85;86.51
22930;BME280;11630;42.660;23.292;2022-11-20T07:54:57;69615.11;;;18.88;85.58
22930;BME280;11630;42.660;23.292;2022-11-20T07:57:33;69623.64;;;18.87;86.60
22930;BME280;11630;42.660;23.292;2022-11-20T08:00:06;69572.09;;;18.51;91.22
22930;BME280;11630;42.660;23.292;2022-11-20T08:02:40;69583.89;;;18.57;89.27
22930;BME280;11630;42.660;23.292;2022-11-20T08:05:12;69577.05;;;18.53;90.02
22930;BME280;11630;42.660;23.292;2022-11-20T08:07:43;69571.55;;;18.53;91.65
22930;BME280;11630;42.660;23.292;2022-11-20T08:10:14;69591.30;;;18.63;90.67
22930;BME280;11630;42.660;23.292;2022-11-20T08:12:47;69596.80;;;18.63;90.38
22930;BME280;11630;42.660;23.292;2022-11-20T08:15:35;69573.44;;;18.55;92.02
22930;BME280;11630;42.660;23.292;2022-11-20T08:18:11;69590.69;;;18.72;91.10
22930;BME280;11630;42.660;23.292;2022-11-20T08:20:42;69621.17;;;18.86;90.41
22930;BME280;11630;42.660;23.292;2022-11-20T08:23:13;69618.92;;;18.94;90.17
22930;BME280;11630;42.660;23.292;2022-11-20T08:25:49;69633.23;;;18.97;89.97
22930;BME280;11630;42.660;23.292;2022-11-20T08:28:19;69609.30;;;18.92;91.44
22930;BME280;11630;42.660;23.292;2022-11-20T08:30:50;69618.38;;;18.94;90.48
22930;BME280;11630;42.660;23.292;2022-11-20T08:33:21;69654.33;;;19.18;89.55
22930;BME280;11630;42.660;23.292;2022-11-20T08:35:52;69647.74;;;19.17;88.21
22930;BME280;11630;42.660;23.292;2022-11-20T08:38:23;69679.91;;;19.27;87.47
22930;BME280;11630;42.660;23.292;2022-11-20T08:41:02;69649.63;;;19.22;88.25
22930;BME280;11630;42.660;23.292;2022-11-20T08:43:45;69663.08;;;19.31;88.35
22930;BME280;11630;42.660;23.292;2022-11-20T08:46:15;69615.15;;;18.78;94.90
22930;BME280;11630;42.660;23.292;2022-11-20T08:48:45;69568.84;;;18.43;99.39
22930;BME280;11630;42.660;23.292;2022-11-20T08:51:16;69523.10;;;18.00;100.00
22930;BME280;11630;42.660;23.292;2022-11-20T08:53:47;69484.52;;;17.61;100.00
22930;BME280;11630;42.660;23.292;2022-11-20T08:56:18;69454.63;;;17.48;100.00
22930;BME280;11630;42.660;23.292;2022-11-20T08:58:50;69467.55;;;17.48;100.00
22930;BME280;11630;42.660;23.292;2022-11-20T09:01:22;69467.27;;;17.49;100.00
22930;BME280;11630;42.660;23.292;2022-11-20T09:03:52;69457.13;;;17.44;100.00
22930;BME280;11630;42.660;23.292;2022-11-20T09:06:23;69461.23;;;17.46;100.00
22930;BME280;11630;42.660;23.292;2022-11-20T09:08:59;69448.92;;;17.39;100.00
22930;BME280;11630;42.660;23.292;2022-11-20T09:11:25;69433.84;;;17.31;100.00
22930;BME280;11630;42.660;23.292;2022-11-20T09:13:55;69426.71;;;17.22;100.00
22930;BME280;11630;42.660;23.292;2022-11-20T09:16:26;69436.59;;;17.26;100.00
22930;BME280;11630;42.660;23.292;2022-11-20T09:18:58;69406.20;;;17.02;100.00
22930;BME280;11630;42.660;23.292;2022-11-20T09:21:29;69410.89;;;17.03;100.00
22930;BME280;11630;42.660;23.292;2022-11-20T09:24:00;69388.18;;;16.84;100.00
22930;BME280;11630;42.660;23.292;2022-11-20T09:26:31;69365.77;;;16.61;100.00
22930;BME280;11630;42.660;23.292;2022-11-20T09:29:02;69342.80;;;16.40;100.00
22930;BME280;11630;42.660;23.292;2022-11-20T09:31:32;69321.46;;;16.15;100.00
22930;BME280;11630;42.660;23.292;2022-11-20T09:34:03;69298.77;;;15.96;100.00
22930;BME280;11630;42.660;23.292;2022-11-20T09:36:33;69297.95;;;15.99;100.00
22930;BME280;11630;42.660;23.292;2022-11-20T09:39:04;69281.55;;;15.84;100.00
22930;BME280;11630;42.660;23.292;2022-11-20T09:47:11;69338.98;;;16.36;100.00
22930;BME280;11630;42.660;23.292;2022-11-20T09:50:04;69352.35;;;16.50;100.00
22930;BME280;11630;42.660;23.292;2022-11-20T09:55:14;69386.81;;;16.79;100.00
22930;BME280;11630;42.660;23.292;2022-11-20T09:57:46;69410.33;;;17.02;100.00
22930;BME280;11630;42.660;23.292;2022-11-20T10:00:18;69445.09;;;17.25;100.00
22930;BME280;11630;42.660;23.292;2022-11-20T10:03:50;69506.13;;;17.84;100.00
22930;BME280;11630;42.660;23.292;2022-11-20T10:05:45;69523.34;;;18.04;100.00
22930;BME280;11630;42.660;23.292;2022-11-20T10:08:38;69561.72;;;18.39;100.00
22930;BME280;11630;42.660;23.292;2022-11-20T10:16:41;69634.57;;;19.02;100.00
22930;BME280;11630;42.660;23.292;2022-11-20T10:19:14;69628.27;;;18.98;100.00
22930;BME280;11630;42.660;23.292;2022-11-20T10:30:12;69562.56;;;18.33;100.00
22930;BME280;11630;42.660;23.292;2022-11-20T10:32:54;69519.80;;;17.99;100.00
22930;BME280;11630;42.660;23.292;2022-11-20T10:35:28;69474.62;;;17.65;100.00
22930;BME280;11630;42.660;23.292;2022-11-20T10:38:00;69468.89;;;17.58;100.00
22930;BME280;11630;42.660;23.292;2022-11-20T10:40:38;69496.04;;;17.67;100.00
22930;BME280;11630;42.660;23.292;2022-11-20T10:43:32;69498.74;;;17.79;100.00
22930;BME280;11630;42.660;23.292;2022-11-20T10:48:29;69481.50;;;17.62;100.00
22930;BME280;11630;42.660;23.292;2022-11-20T10:51:26;69462.34;;;17.45;100.00
22930;BME280;11630;42.660;23.292;2022-11-20T10:56:33;69472.19;;;17.56;100.00
22930;BME280;11630;42.660;23.292;2022-11-20T10:59:24;69460.98;;;17.42;100.00
22930;BME280;11630;42.660;23.292;2022-11-20T11:01:42;69456.59;;;17.43;100.00
22930;BME280;11630;42.660;23.292;2022-11-20T11:04:35;69443.70;;;17.38;100.00
22930;BME280;11630;42.660;23.292;2022-11-20T11:09:55;69382.45;;;16.75;100.00
22930;BME280;11630;42.660;23.292;2022-11-20T11:12:28;69229.39;;;15.36;100.00
22930;BME280;11630;42.660;23.292;2022-11-20T11:14:59;69228.02;;;15.31;100.00
22930;BME280;11630;42.660;23.292;2022-11-20T11:17:32;69178.30;;;14.93;100.00
22930;BME280;11630;42.660;23.292;2022-11-20T11:20:14;69171.47;;;14.83;100.00
22930;BME280;11630;42.660;23.292;2022-11-20T11:22:48;69137.61;;;14.55;100.00
22930;BME280;11630;42.660;23.292;2022-11-20T11:25:29;69118.78;;;14.46;100.00
22930;BME280;11630;42.660;23.292;2022-11-20T11:28:19;69099.69;;;14.21;100.00
22930;BME280;11630;42.660;23.292;2022-11-20T11:30:45;69087.38;;;14.09;100.00
22930;BME280;11630;42.660;23.292;2022-11-20T11:33:30;69083.56;;;14.05;100.00
22930;BME280;11630;42.660;23.292;2022-11-20T11:36:15;69074.57;;;13.93;100.00
22930;BME280;11630;42.660;23.292;2022-11-20T11:38:41;69092.88;;;14.14;100.00
22930;BME280;11630;42.660;23.292;2022-11-20T11:41:20;69100.50;;;14.23;100.00
22930;BME280;11630;42.660;23.292;2022-11-20T11:43:53;69100.48;;;14.28;100.00
22930;BME280;11630;42.660;23.292;2022-11-20T11:46:43;69129.44;;;14.47;100.00
22930;BME280;11630;42.660;23.292;2022-11-20T11:49:19;69133.78;;;14.54;100.00
22930;BME280;11630;42.660;23.292;2022-11-20T11:52:12;69158.36;;;14.76;100.00
22930;BME280;11630;42.660;23.292;2022-11-20T11:54:58;69161.63;;;14.84;100.00
22930;BME280;11630;42.660;23.292;2022-11-20T11:57:44;69171.45;;;14.88;100.00
22930;BME280;11630;42.660;23.292;2022-11-20T12:00:18;69161.36;;;14.77;100.00
22930;BME280;11630;42.660;23.292;2022-11-20T12:05:35;69204.49;;;15.17;100.00
22930;BME280;11630;42.660;23.292;2022-11-20T12:08:25;69183.20;;;14.95;100.00
22930;BME280;11630;42.660;23.292;2022-11-20T12:10:56;69151.81;;;14.70;100.00
22930;BME280;11630;42.660;23.292;2022-11-20T12:16:05;69156.45;;;14.78;100.00
22930;BME280;11630;42.660;23.292;2022-11-20T12:18:34;69175.28;;;14.91;100.00
22930;BME280;11630;42.660;23.292;2022-11-20T12:24:42;69181.58;;;14.91;100.00
22930;BME280;11630;42.660;23.292;2022-11-20T12:30:14;69154.53;;;14.75;100.00
22930;BME280;11630;42.660;23.292;2022-11-20T12:35:44;69136.25;;;14.52;100.00
22930;BME280;11630;42.660;23.292;2022-11-20T12:41:12;69170.65;;;14.81;100.00
22930;BME280;11630;42.660;23.292;2022-11-20T12:43:55;69165.46;;;14.85;100.00
22930;BME280;11630;42.660;23.292;2022-11-20T12:46:46;69169.83;;;14.79;100.00
22930;BME280;11630;42.660;23.292;2022-11-20T12:54:49;69261.33;;;15.68;100.00
22930;BME280;11630;42.660;23.292;2022-11-20T12:57:31;69278.27;;;15.86;100.00
22930;BME280;11630;42.660;23.292;2022-11-20T13:00:14;69299.31;;;15.99;100.00
22930;BME280;11630;42.660;23.292;2022-11-20T13:05:58;69327.77;;;16.17;100.00
22930;BME280;11630;42.660;23.292;2022-11-20T13:08:35;69246.59;;;15.47;100.00
22930;BME280;11630;42.660;23.292;2022-11-20T13:19:11;69138.98;;;14.52;100.00
22930;BME280;11630;42.660;23.292;2022-11-20T13:21:39;69133.80;;;14.51;100.00
22930;BME280;11630;42.660;23.292;2022-11-20T13:24:24;69146.09;;;14.54;100.00
22930;BME280;11630;42.660;23.292;2022-11-20T13:29:46;69129.98;;;14.45;100.00
22930;BME280;11630;42.660;23.292;2022-11-20T13:32:18;69105.42;;;14.25;100.00
22930;BME280;11630;42.660;23.292;2022-11-20T13:34:58;69086.58;;;14.07;100.00
22930;BME280;11630;42.660;23.292;2022-11-20T13:37:31;69079.75;;;14.07;100.00
22930;BME280;11630;42.660;23.292;2022-11-20T13:42:46;69077.57;;;14.02;100.00
22930;BME280;11630;42.660;23.292;2022-11-20T13:45:31;69087.13;;;14.12;100.00
22930;BME280;11630;42.660;23.292;2022-11-20T13:47:59;69078.66;;;14.03;100.00
22930;BME280;11630;42.660;23.292;2022-11-20T13:50:39;69093.41;;;14.14;100.00
22930;BME280;11630;42.660;23.292;2022-11-20T13:53:26;69096.42;;;14.18;100.00
22930;BME280;11630;42.660;23.292;2022-11-20T13:56:18;69106.52;;;14.26;100.00
22930;BME280;11630;42.660;23.292;2022-11-20T13:59:09;69100.77;;;14.22;100.00
22930;BME280;11630;42.660;23.292;2022-11-20T14:01:38;69118.52;;;14.35;100.00
22930;BME280;11630;42.660;23.292;2022-11-20T14:04:11;69109.51;;;14.30;100.00
22930;BME280;11630;42.660;23.292;2022-11-20T14:06:45;69115.78;;;14.37;100.00
22930;BME280;11630;42.660;23.292;2022-11-20T14:09:30;69097.23;;;14.23;100.00
22930;BME280;11630;42.660;23.292;2022-11-20T14:12:02;69105.69;;;14.27;100.00
22930;BME280;11630;42.660;23.292;2022-11-20T14:14:35;69099.14;;;14.23;100.00
22930;BME280;11630;42.660;23.292;2022-11-20T14:17:17;69104.05;;;14.30;100.00
22930;BME280;11630;42.660;23.292;2022-11-20T14:19:41;69098.87;;;14.24;100.00
22930;BME280;11630;42.660;23.292;2022-11-20T14:22:20;69083.03;;;14.02;100.00
22930;BME280;11630;42.660;23.292;2022-11-20T14:27:55;69076.47;;;14.01;100.00
22930;BME280;11630;42.660;23.292;2022-11-20T14:30:44;69079.20;;;14.01;100.00
22930;BME280;11630;42.660;23.292;2022-11-20T14:33:13;69075.94;;;14.03;100.00
22930;BME280;11630;42.660;23.292;2022-11-20T14:35:49;69070.46;;;13.98;100.00
22930;BME280;11630;42.660;23.292;2022-11-20T14:38:29;69105.95;;;14.28;100.00
22930;BME280;11630;42.660;23.292;2022-11-20T14:41:20;69117.15;;;14.37;100.00
22930;BME280;11630;42.660;23.292;2022-11-20T14:44:00;69094.23;;;14.19;100.00